KLNK/LNK METAR and TAF weather

Enter ICAO airport designator
Station Type Date Time Source
KLNK METAR 2021/05/12 00:54 UTC NOAA

KLNK 120054Z 07008KT 10SM CLR 14/00 A3030 RMK AO2 SLP262 T01440000


Station Type Date Time Source
KLNK Decoded METAR 2021/05/12 00:54 UTC NOAA

LINCOLN MUNICIPAL AIRPORT, NE, United States (KLNK) 40-50N 96-46W 364M
May 11, 2021 - 08:54 PM EDT / 2021.05.12 0054 UTC
Wind: from the ENE (070 degrees) at 9 MPH (8 KT):0
Visibility: 10 mile(s):0
Sky conditions: clear
Temperature: 57.9 F (14.4 C)
Dew Point: 32.0 F (0.0 C)
Relative Humidity: 37%
Pressure (altimeter): 30.3 in. Hg (1026 hPa)
ob: KLNK 120054Z 07008KT 10SM CLR 14/00 A3030 RMK AO2 SLP262 T01440000
cycle: 1

Station Type Date Time Source
KLNK TAF 2021/05/11 18:21 UTC NOAA

TAF KLNK 111720Z 1118/1218 08010KT P6SM SCT200
FM112000 08010KT P6SM OVC150
FM120200 10005KT P6SM OVC120
FM121200 15005KT P6SM BKN250

Example: see airport list